^^
Meteo Knjazevac Station Historical Data
Daily Summary for January 12, 2021 Units:  English    Metric   Both
Daily Weekly Monthly Yearly Custom
  High: Low: Average:
Temperature: 32.4 °F 31.5 °F 32 °F
Dew Point: 32.1 °F 31.2 °F 31.7 °F
Humidity: 99% 99% 99%
Wind Speed: 6mph 1mph 3.6mph
Wind Gust: 15mph - -
Wind- - SSW
Pressure: 30.11 in 30.03 in -
Precipitation: 0.00 in    
Historical Graphs
 
 
Tabular Data for January 12, 2021
Time Temperature Dew Point Pressure Wind Wind Speed Wind Gust Humidity Rainfall Rate (Hourly) solar Conditions
00:00 32.2 °F 31.9 °F 30.10 in North 2 mph 8 mph 99% 0.00 in 0 W/m2
00:10 32.2 °F 31.9 °F 30.10 in North 6 mph 10 mph 99% 0.00 in 0 W/m2
00:20 32.2 °F 31.9 °F 30.10 in North 5 mph 9 mph 99% 0.00 in 0 W/m2
00:30 32.4 °F 32.1 °F 30.10 in North 6 mph 9 mph 99% 0.00 in 0 W/m2
00:40 32.2 °F 31.9 °F 30.10 in North 6 mph 11 mph 99% 0.00 in 0 W/m2
00:50 32.2 °F 31.9 °F 30.10 in North 2 mph 10 mph 99% 0.00 in 0 W/m2
01:00 32.2 °F 31.9 °F 30.10 in North 3 mph 11 mph 99% 0.00 in 0 W/m2
01:10 32.2 °F 31.9 °F 30.10 in North 6 mph 11 mph 99% 0.00 in 0 W/m2
01:20 32.2 °F 31.9 °F 30.10 in North 3 mph 13 mph 99% 0.00 in 0 W/m2
01:30 32.2 °F 31.9 °F 30.11 in North 2 mph 9 mph 99% 0.00 in 0 W/m2
01:40 32.2 °F 31.9 °F 30.10 in North 2 mph 13 mph 99% 0.00 in 0 W/m2
01:50 32.2 °F 31.9 °F 30.09 in North 2 mph 6 mph 99% 0.00 in 0 W/m2
02:00 32 °F 31.8 °F 30.09 in North 1 mph 8 mph 99% 0.00 in 0 W/m2
02:10 32 °F 31.8 °F 30.09 in North 1 mph 5 mph 99% 0.00 in 0 W/m2
02:20 32 °F 31.8 °F 30.09 in North 3 mph 7 mph 99% 0.00 in 0 W/m2
02:30 32 °F 31.8 °F 30.08 in North 3 mph 8 mph 99% 0.00 in 0 W/m2
02:40 32.1 °F 31.9 °F 30.08 in North 2 mph 9 mph 99% 0.00 in 0 W/m2
02:50 32.2 °F 31.9 °F 30.08 in North 5 mph 12 mph 99% 0.00 in 0 W/m2
03:00 32.1 °F 31.9 °F 30.08 in North 6 mph 12 mph 99% 0.00 in 0 W/m2
03:10 32.1 °F 31.9 °F 30.08 in North 6 mph 12 mph 99% 0.00 in 0 W/m2
03:20 32.1 °F 31.9 °F 30.08 in North 3 mph 9 mph 99% 0.00 in 0 W/m2
03:30 32 °F 31.8 °F 30.08 in North 5 mph 11 mph 99% 0.00 in 0 W/m2
03:40 32 °F 31.8 °F 30.07 in North 3 mph 13 mph 99% 0.00 in 0 W/m2
03:50 32 °F 31.8 °F 30.07 in North 5 mph 12 mph 99% 0.00 in 0 W/m2
04:00 32 °F 31.8 °F 30.07 in North 5 mph 11 mph 99% 0.00 in 0 W/m2
04:10 32 °F 31.8 °F 30.06 in North 5 mph 12 mph 99% 0.00 in 0 W/m2
04:20 32 °F 31.8 °F 30.06 in North 5 mph 15 mph 99% 0.00 in 0 W/m2
04:30 32 °F 31.8 °F 30.06 in North 3 mph 12 mph 99% 0.00 in 0 W/m2
04:40 32 °F 31.8 °F 30.06 in North 3 mph 10 mph 99% 0.00 in 0 W/m2
04:50 32 °F 31.8 °F 30.06 in North 2 mph 8 mph 99% 0.00 in 0 W/m2
05:00 31.8 °F 31.6 °F 30.05 in North 2 mph 11 mph 99% 0.00 in 0 W/m2
05:10 31.8 °F 31.6 °F 30.05 in North 3 mph 10 mph 99% 0.00 in 0 W/m2
05:20 31.9 °F 31.7 °F 30.05 in North 6 mph 9 mph 99% 0.00 in 0 W/m2
05:30 31.8 °F 31.6 °F 30.05 in North 5 mph 10 mph 99% 0.00 in 0 W/m2
05:40 31.8 °F 31.6 °F 30.05 in North 5 mph 12 mph 99% 0.00 in 0 W/m2
05:50 31.8 °F 31.6 °F 30.05 in North 3 mph 11 mph 99% 0.00 in 0 W/m2
06:00 31.8 °F 31.6 °F 30.05 in North 5 mph 9 mph 99% 0.00 in 0 W/m2
06:10 31.6 °F 31.4 °F 30.05 in North 5 mph 9 mph 99% 0.00 in 0 W/m2
06:20 31.6 °F 31.4 °F 30.05 in North 3 mph 10 mph 99% 0.00 in 0 W/m2
06:30 31.6 °F 31.4 °F 30.05 in NNW 2 mph 8 mph 99% 0.00 in 0 W/m2
06:40 31.5 °F 31.2 °F 30.04 in North 3 mph 12 mph 99% 0.00 in 0 W/m2
06:50 31.5 °F 31.2 °F 30.04 in North 3 mph 11 mph 99% 0.00 in 0 W/m2
07:00 31.5 °F 31.2 °F 30.04 in NNW 3 mph 7 mph 99% 0.00 in 0 W/m2
07:10 31.5 °F 31.2 °F 30.04 in NNW 1 mph 8 mph 99% 0.00 in 2 W/m2
07:20 31.5 °F 31.2 °F 30.04 in North 3 mph 8 mph 99% 0.00 in 3 W/m2
07:30 31.5 °F 31.2 °F 30.03 in North 3 mph 9 mph 99% 0.00 in 5 W/m2
Knjazevac, Serbia
Compliments of Weather Underground - 2 mb